sensor_id;sensor_type;location;lat;lon;timestamp;temperature;humidity
13686;DHT22;6915;48.296;8.874;2023-02-11T00:01:39;-5.10;99.90
13686;DHT22;6915;48.296;8.874;2023-02-11T00:04:08;-5.20;99.90
13686;DHT22;6915;48.296;8.874;2023-02-11T00:06:37;-5.20;99.90
13686;DHT22;6915;48.296;8.874;2023-02-11T00:09:06;-5.20;99.90
13686;DHT22;6915;48.296;8.874;2023-02-11T00:11:36;-5.30;99.90
13686;DHT22;6915;48.296;8.874;2023-02-11T00:14:06;-5.30;99.90
13686;DHT22;6915;48.296;8.874;2023-02-11T00:16:35;-5.20;99.90
13686;DHT22;6915;48.296;8.874;2023-02-11T00:19:06;-5.20;99.90
13686;DHT22;6915;48.296;8.874;2023-02-11T00:21:36;-5.20;99.90
13686;DHT22;6915;48.296;8.874;2023-02-11T00:24:05;-5.20;99.90
13686;DHT22;6915;48.296;8.874;2023-02-11T00:26:35;-5.20;99.90
13686;DHT22;6915;48.296;8.874;2023-02-11T00:29:04;-5.30;99.90
13686;DHT22;6915;48.296;8.874;2023-02-11T00:31:33;-5.40;99.90
13686;DHT22;6915;48.296;8.874;2023-02-11T00:34:02;-5.50;99.90
13686;DHT22;6915;48.296;8.874;2023-02-11T00:36:31;-5.50;99.90
13686;DHT22;6915;48.296;8.874;2023-02-11T00:39:01;-5.60;99.90
13686;DHT22;6915;48.296;8.874;2023-02-11T00:41:30;-5.70;99.90
13686;DHT22;6915;48.296;8.874;2023-02-11T00:44:00;-5.70;99.90
13686;DHT22;6915;48.296;8.874;2023-02-11T00:46:29;-5.70;99.90
13686;DHT22;6915;48.296;8.874;2023-02-11T00:48:58;-5.70;99.90
13686;DHT22;6915;48.296;8.874;2023-02-11T00:51:27;-5.60;99.90
13686;DHT22;6915;48.296;8.874;2023-02-11T00:53:58;-5.60;99.90
13686;DHT22;6915;48.296;8.874;2023-02-11T00:56:27;-5.60;99.90
13686;DHT22;6915;48.296;8.874;2023-02-11T00:58:56;-5.60;99.90
13686;DHT22;6915;48.296;8.874;2023-02-11T01:01:27;-5.60;99.90
13686;DHT22;6915;48.296;8.874;2023-02-11T01:03:55;-5.70;99.90
13686;DHT22;6915;48.296;8.874;2023-02-11T01:06:24;-5.70;99.90
13686;DHT22;6915;48.296;8.874;2023-02-11T01:08:53;-5.80;99.90
13686;DHT22;6915;48.296;8.874;2023-02-11T01:11:22;-5.70;99.90
13686;DHT22;6915;48.296;8.874;2023-02-11T01:13:51;-5.80;99.90
13686;DHT22;6915;48.296;8.874;2023-02-11T01:16:20;-5.80;99.90
13686;DHT22;6915;48.296;8.874;2023-02-11T01:18:51;-5.80;99.90
13686;DHT22;6915;48.296;8.874;2023-02-11T01:21:20;-5.80;99.90
13686;DHT22;6915;48.296;8.874;2023-02-11T01:23:48;-5.90;99.90
13686;DHT22;6915;48.296;8.874;2023-02-11T01:26:18;-5.90;99.90
13686;DHT22;6915;48.296;8.874;2023-02-11T01:28:46;-5.80;99.90
13686;DHT22;6915;48.296;8.874;2023-02-11T01:31:15;-5.80;99.90
13686;DHT22;6915;48.296;8.874;2023-02-11T01:33:44;-5.80;99.90
13686;DHT22;6915;48.296;8.874;2023-02-11T01:36:14;-5.90;99.90
13686;DHT22;6915;48.296;8.874;2023-02-11T01:38:43;-5.90;99.90
13686;DHT22;6915;48.296;8.874;2023-02-11T01:41:13;-5.90;99.90
13686;DHT22;6915;48.296;8.874;2023-02-11T01:43:45;-5.80;99.90
13686;DHT22;6915;48.296;8.874;2023-02-11T01:46:33;-5.90;99.90
13686;DHT22;6915;48.296;8.874;2023-02-11T01:49:07;-5.80;99.90
13686;DHT22;6915;48.296;8.874;2023-02-11T01:51:41;-5.70;99.90
13686;DHT22;6915;48.296;8.874;2023-02-11T01:54:13;-5.80;99.90
13686;DHT22;6915;48.296;8.874;2023-02-11T01:57:00;-5.80;99.90
13686;DHT22;6915;48.296;8.874;2023-02-11T01:59:49;-5.80;99.90
13686;DHT22;6915;48.296;8.874;2023-02-11T02:02:23;-5.70;99.90
13686;DHT22;6915;48.296;8.874;2023-02-11T02:04:56;-5.60;99.90
13686;DHT22;6915;48.296;8.874;2023-02-11T02:07:32;-5.50;99.90
13686;DHT22;6915;48.296;8.874;2023-02-11T02:10:05;-5.40;99.90
13686;DHT22;6915;48.296;8.874;2023-02-11T02:12:37;-5.40;99.90
13686;DHT22;6915;48.296;8.874;2023-02-11T02:15:25;-5.20;99.90
13686;DHT22;6915;48.296;8.874;2023-02-11T02:17:59;-5.40;99.90
13686;DHT22;6915;48.296;8.874;2023-02-11T02:21:09;-5.30;99.90
13686;DHT22;6915;48.296;8.874;2023-02-11T02:27:19;-5.30;99.90
13686;DHT22;6915;48.296;8.874;2023-02-11T02:30:11;-5.20;99.90
13686;DHT22;6915;48.296;8.874;2023-02-11T02:33:13;-5.20;99.90
13686;DHT22;6915;48.296;8.874;2023-02-11T02:35:50;-5.30;99.90
13686;DHT22;6915;48.296;8.874;2023-02-11T02:38:26;-5.30;99.90
13686;DHT22;6915;48.296;8.874;2023-02-11T02:40:58;-5.30;99.90
13686;DHT22;6915;48.296;8.874;2023-02-11T02:43:28;-5.20;99.90
13686;DHT22;6915;48.296;8.874;2023-02-11T02:46:09;-5.00;99.90
13686;DHT22;6915;48.296;8.874;2023-02-11T02:48:40;-5.20;99.90
13686;DHT22;6915;48.296;8.874;2023-02-11T02:51:16;-5.30;99.90
13686;DHT22;6915;48.296;8.874;2023-02-11T02:53:59;-5.40;99.90
13686;DHT22;6915;48.296;8.874;2023-02-11T02:56:38;-5.50;99.90
13686;DHT22;6915;48.296;8.874;2023-02-11T02:59:25;-5.60;99.90
13686;DHT22;6915;48.296;8.874;2023-02-11T03:02:01;-5.60;99.90
13686;DHT22;6915;48.296;8.874;2023-02-11T03:04:39;-5.50;99.90
13686;DHT22;6915;48.296;8.874;2023-02-11T03:07:15;-5.70;99.90
13686;DHT22;6915;48.296;8.874;2023-02-11T03:09:51;-5.70;99.90
13686;DHT22;6915;48.296;8.874;2023-02-11T03:12:23;-5.70;99.90
13686;DHT22;6915;48.296;8.874;2023-02-11T03:14:53;-5.70;99.90
13686;DHT22;6915;48.296;8.874;2023-02-11T03:17:24;-5.80;99.90
13686;DHT22;6915;48.296;8.874;2023-02-11T03:19:56;-5.70;99.90
13686;DHT22;6915;48.296;8.874;2023-02-11T03:22:29;-5.60;99.90
13686;DHT22;6915;48.296;8.874;2023-02-11T03:24:59;-5.60;99.90
13686;DHT22;6915;48.296;8.874;2023-02-11T03:27:33;-5.60;99.90
13686;DHT22;6915;48.296;8.874;2023-02-11T03:30:09;-5.60;99.90
13686;DHT22;6915;48.296;8.874;2023-02-11T03:32:42;-5.70;99.90
13686;DHT22;6915;48.296;8.874;2023-02-11T03:35:18;-5.80;99.90
13686;DHT22;6915;48.296;8.874;2023-02-11T03:37:52;-5.80;99.90
13686;DHT22;6915;48.296;8.874;2023-02-11T03:40:26;-5.80;99.90
13686;DHT22;6915;48.296;8.874;2023-02-11T03:42:58;-5.80;99.90
13686;DHT22;6915;48.296;8.874;2023-02-11T03:45:28;-5.90;99.90
13686;DHT22;6915;48.296;8.874;2023-02-11T03:48:01;-5.80;99.90
13686;DHT22;6915;48.296;8.874;2023-02-11T03:50:33;-5.80;99.90
13686;DHT22;6915;48.296;8.874;2023-02-11T03:53:03;-5.80;99.90
13686;DHT22;6915;48.296;8.874;2023-02-11T03:55:34;-5.80;99.90
13686;DHT22;6915;48.296;8.874;2023-02-11T03:58:04;-5.80;99.90
13686;DHT22;6915;48.296;8.874;2023-02-11T04:00:35;-5.90;99.90
13686;DHT22;6915;48.296;8.874;2023-02-11T04:03:05;-5.90;99.90
13686;DHT22;6915;48.296;8.874;2023-02-11T04:05:36;-5.90;99.90
13686;DHT22;6915;48.296;8.874;2023-02-11T04:08:06;-6.00;99.90
13686;DHT22;6915;48.296;8.874;2023-02-11T04:10:35;-6.00;99.90
13686;DHT22;6915;48.296;8.874;2023-02-11T04:13:04;-6.00;99.90
13686;DHT22;6915;48.296;8.874;2023-02-11T04:15:32;-6.00;99.90
13686;DHT22;6915;48.296;8.874;2023-02-11T04:18:01;-6.00;99.90
13686;DHT22;6915;48.296;8.874;2023-02-11T04:20:31;-6.00;99.90
13686;DHT22;6915;48.296;8.874;2023-02-11T04:23:01;-6.00;99.90
13686;DHT22;6915;48.296;8.874;2023-02-11T04:25:30;-6.00;99.90
13686;DHT22;6915;48.296;8.874;2023-02-11T04:27:59;-6.00;99.90
13686;DHT22;6915;48.296;8.874;2023-02-11T04:30:27;-6.00;99.90
13686;DHT22;6915;48.296;8.874;2023-02-11T04:32:56;-6.00;99.90
13686;DHT22;6915;48.296;8.874;2023-02-11T04:35:25;-6.00;99.90
13686;DHT22;6915;48.296;8.874;2023-02-11T04:37:54;-6.00;99.90
13686;DHT22;6915;48.296;8.874;2023-02-11T04:40:24;-6.10;99.90
13686;DHT22;6915;48.296;8.874;2023-02-11T04:42:54;-6.10;99.90
13686;DHT22;6915;48.296;8.874;2023-02-11T04:45:23;-6.10;99.90
13686;DHT22;6915;48.296;8.874;2023-02-11T04:47:51;-6.00;99.90
13686;DHT22;6915;48.296;8.874;2023-02-11T04:50:20;-5.80;99.90
13686;DHT22;6915;48.296;8.874;2023-02-11T04:52:49;-5.80;99.90
13686;DHT22;6915;48.296;8.874;2023-02-11T04:55:18;-5.80;99.90
13686;DHT22;6915;48.296;8.874;2023-02-11T04:57:48;-5.90;99.90
13686;DHT22;6915;48.296;8.874;2023-02-11T05:00:18;-5.90;99.90
13686;DHT22;6915;48.296;8.874;2023-02-11T05:02:46;-5.90;99.90
13686;DHT22;6915;48.296;8.874;2023-02-11T05:05:15;-6.00;99.90
13686;DHT22;6915;48.296;8.874;2023-02-11T05:07:44;-6.00;99.90
13686;DHT22;6915;48.296;8.874;2023-02-11T05:10:13;-5.90;99.90
13686;DHT22;6915;48.296;8.874;2023-02-11T05:12:42;-5.90;99.90
13686;DHT22;6915;48.296;8.874;2023-02-11T05:15:12;-5.80;99.90
13686;DHT22;6915;48.296;8.874;2023-02-11T05:17:41;-5.70;99.90
13686;DHT22;6915;48.296;8.874;2023-02-11T05:20:11;-5.50;99.90
13686;DHT22;6915;48.296;8.874;2023-02-11T05:22:40;-5.40;99.90
13686;DHT22;6915;48.296;8.874;2023-02-11T05:25:09;-5.20;99.90
13686;DHT22;6915;48.296;8.874;2023-02-11T05:27:38;-4.90;99.90
13686;DHT22;6915;48.296;8.874;2023-02-11T05:30:06;-4.60;99.90
13686;DHT22;6915;48.296;8.874;2023-02-11T05:32:36;-4.70;99.90
13686;DHT22;6915;48.296;8.874;2023-02-11T05:35:07;-4.80;99.90
13686;DHT22;6915;48.296;8.874;2023-02-11T05:37:37;-5.00;99.90
13686;DHT22;6915;48.296;8.874;2023-02-11T05:40:05;-5.10;99.90
13686;DHT22;6915;48.296;8.874;2023-02-11T05:42:34;-5.10;99.90
13686;DHT22;6915;48.296;8.874;2023-02-11T05:45:03;-5.10;99.90
13686;DHT22;6915;48.296;8.874;2023-02-11T05:47:32;-5.20;99.90
13686;DHT22;6915;48.296;8.874;2023-02-11T05:50:02;-5.20;99.90
13686;DHT22;6915;48.296;8.874;2023-02-11T05:52:31;-5.30;99.90
13686;DHT22;6915;48.296;8.874;2023-02-11T05:55:00;-5.30;99.90
13686;DHT22;6915;48.296;8.874;2023-02-11T05:57:28;-5.20;99.90
13686;DHT22;6915;48.296;8.874;2023-02-11T05:59:57;-5.10;99.90
13686;DHT22;6915;48.296;8.874;2023-02-11T06:02:26;-5.10;99.90
13686;DHT22;6915;48.296;8.874;2023-02-11T06:04:55;-5.00;99.90
13686;DHT22;6915;48.296;8.874;2023-02-11T06:07:25;-5.10;99.90
13686;DHT22;6915;48.296;8.874;2023-02-11T06:09:53;-5.10;99.90
13686;DHT22;6915;48.296;8.874;2023-02-11T06:12:22;-5.00;99.90
13686;DHT22;6915;48.296;8.874;2023-02-11T06:14:51;-5.00;99.90
13686;DHT22;6915;48.296;8.874;2023-02-11T06:17:20;-4.90;99.90
13686;DHT22;6915;48.296;8.874;2023-02-11T06:19:49;-4.60;99.90
13686;DHT22;6915;48.296;8.874;2023-02-11T06:22:18;-4.30;99.90
13686;DHT22;6915;48.296;8.874;2023-02-11T06:24:48;-4.10;99.90
13686;DHT22;6915;48.296;8.874;2023-02-11T06:27:17;-4.20;99.90
13686;DHT22;6915;48.296;8.874;2023-02-11T06:29:46;-4.00;99.90
13686;DHT22;6915;48.296;8.874;2023-02-11T06:32:15;-3.90;99.90
13686;DHT22;6915;48.296;8.874;2023-02-11T06:34:44;-3.70;99.90
13686;DHT22;6915;48.296;8.874;2023-02-11T06:37:13;-3.60;99.90
13686;DHT22;6915;48.296;8.874;2023-02-11T06:39:42;-3.50;99.90
13686;DHT22;6915;48.296;8.874;2023-02-11T06:42:12;-3.20;99.90
13686;DHT22;6915;48.296;8.874;2023-02-11T06:44:41;-3.20;99.90
13686;DHT22;6915;48.296;8.874;2023-02-11T06:47:11;-3.30;99.90
13686;DHT22;6915;48.296;8.874;2023-02-11T06:49:39;-3.20;99.90
13686;DHT22;6915;48.296;8.874;2023-02-11T06:52:08;-3.40;99.90
13686;DHT22;6915;48.296;8.874;2023-02-11T06:54:37;-3.30;99.90
13686;DHT22;6915;48.296;8.874;2023-02-11T06:57:05;-3.10;99.90
13686;DHT22;6915;48.296;8.874;2023-02-11T06:59:35;-3.20;99.90
13686;DHT22;6915;48.296;8.874;2023-02-11T07:02:04;-3.10;99.90
13686;DHT22;6915;48.296;8.874;2023-02-11T07:04:33;-3.20;99.90
13686;DHT22;6915;48.296;8.874;2023-02-11T07:07:02;-3.10;99.90
13686;DHT22;6915;48.296;8.874;2023-02-11T07:09:31;-3.10;99.90
13686;DHT22;6915;48.296;8.874;2023-02-11T07:12:00;-3.20;99.90
13686;DHT22;6915;48.296;8.874;2023-02-11T07:14:28;-3.00;99.90
13686;DHT22;6915;48.296;8.874;2023-02-11T07:16:59;-2.90;99.90
13686;DHT22;6915;48.296;8.874;2023-02-11T07:19:30;-2.90;99.90
13686;DHT22;6915;48.296;8.874;2023-02-11T07:22:00;-2.90;99.90
13686;DHT22;6915;48.296;8.874;2023-02-11T07:24:29;-2.90;99.90
13686;DHT22;6915;48.296;8.874;2023-02-11T07:26:58;-2.70;99.90
13686;DHT22;6915;48.296;8.874;2023-02-11T07:29:26;-2.80;99.90
13686;DHT22;6915;48.296;8.874;2023-02-11T07:31:55;-2.60;99.90
13686;DHT22;6915;48.296;8.874;2023-02-11T07:34:25;-2.70;99.90
13686;DHT22;6915;48.296;8.874;2023-02-11T07:36:54;-2.60;99.90
13686;DHT22;6915;48.296;8.874;2023-02-11T07:39:23;-2.50;99.90
13686;DHT22;6915;48.296;8.874;2023-02-11T07:41:53;-2.50;99.90
13686;DHT22;6915;48.296;8.874;2023-02-11T07:44:23;-2.50;99.90
13686;DHT22;6915;48.296;8.874;2023-02-11T07:46:52;-2.50;99.90
13686;DHT22;6915;48.296;8.874;2023-02-11T07:49:21;-2.50;99.90
13686;DHT22;6915;48.296;8.874;2023-02-11T07:51:51;-2.40;99.90
13686;DHT22;6915;48.296;8.874;2023-02-11T07:54:20;-2.10;99.90
13686;DHT22;6915;48.296;8.874;2023-02-11T07:56:48;-2.20;99.90
13686;DHT22;6915;48.296;8.874;2023-02-11T07:59:17;-2.00;99.90
13686;DHT22;6915;48.296;8.874;2023-02-11T08:01:46;-1.80;99.90
13686;DHT22;6915;48.296;8.874;2023-02-11T08:04:17;-1.80;99.90
13686;DHT22;6915;48.296;8.874;2023-02-11T08:06:46;-1.80;99.90
13686;DHT22;6915;48.296;8.874;2023-02-11T08:09:17;-1.70;99.90
13686;DHT22;6915;48.296;8.874;2023-02-11T08:11:46;-1.50;99.90
13686;DHT22;6915;48.296;8.874;2023-02-11T08:14:17;-1.40;99.90
13686;DHT22;6915;48.296;8.874;2023-02-11T08:16:46;-1.20;99.90
13686;DHT22;6915;48.296;8.874;2023-02-11T08:19:16;-1.00;99.90
13686;DHT22;6915;48.296;8.874;2023-02-11T08:21:45;-0.90;99.90
13686;DHT22;6915;48.296;8.874;2023-02-11T08:24:14;-0.90;99.90
13686;DHT22;6915;48.296;8.874;2023-02-11T08:26:44;-0.90;99.90
13686;DHT22;6915;48.296;8.874;2023-02-11T08:29:15;-0.60;99.90
13686;DHT22;6915;48.296;8.874;2023-02-11T08:31:47;-0.60;99.90
13686;DHT22;6915;48.296;8.874;2023-02-11T08:34:16;-0.50;99.90
13686;DHT22;6915;48.296;8.874;2023-02-11T08:36:48;-0.40;99.90
13686;DHT22;6915;48.296;8.874;2023-02-11T08:39:19;-0.40;99.90
13686;DHT22;6915;48.296;8.874;2023-02-11T08:41:50;-0.40;99.90
13686;DHT22;6915;48.296;8.874;2023-02-11T08:44:20;-0.20;99.90
13686;DHT22;6915;48.296;8.874;2023-02-11T08:46:50;-0.10;99.90
13686;DHT22;6915;48.296;8.874;2023-02-11T08:49:20;-0.10;99.90
13686;DHT22;6915;48.296;8.874;2023-02-11T08:51:49;0.00;99.90
13686;DHT22;6915;48.296;8.874;2023-02-11T08:54:18;0.00;99.90
13686;DHT22;6915;48.296;8.874;2023-02-11T08:56:52;0.10;99.90
13686;DHT22;6915;48.296;8.874;2023-02-11T08:59:21;0.10;99.90
13686;DHT22;6915;48.296;8.874;2023-02-11T09:01:50;0.20;99.90
13686;DHT22;6915;48.296;8.874;2023-02-11T09:04:19;0.30;99.90
13686;DHT22;6915;48.296;8.874;2023-02-11T09:06:48;0.50;99.90
13686;DHT22;6915;48.296;8.874;2023-02-11T09:09:17;0.70;99.90
13686;DHT22;6915;48.296;8.874;2023-02-11T09:11:46;0.80;99.90
13686;DHT22;6915;48.296;8.874;2023-02-11T09:14:18;0.90;99.90
13686;DHT22;6915;48.296;8.874;2023-02-11T09:16:49;1.10;99.90
13686;DHT22;6915;48.296;8.874;2023-02-11T09:19:19;1.10;99.90
13686;DHT22;6915;48.296;8.874;2023-02-11T09:21:49;1.30;99.90
13686;DHT22;6915;48.296;8.874;2023-02-11T09:24:19;1.50;99.90
13686;DHT22;6915;48.296;8.874;2023-02-11T09:26:48;1.80;99.90
13686;DHT22;6915;48.296;8.874;2023-02-11T09:29:19;1.90;99.90
13686;DHT22;6915;48.296;8.874;2023-02-11T09:31:48;2.00;99.90
13686;DHT22;6915;48.296;8.874;2023-02-11T09:34:17;2.30;99.90
13686;DHT22;6915;48.296;8.874;2023-02-11T09:36:45;2.50;99.90
13686;DHT22;6915;48.296;8.874;2023-02-11T09:39:16;2.60;99.90
13686;DHT22;6915;48.296;8.874;2023-02-11T09:42:29;2.70;99.90
13686;DHT22;6915;48.296;8.874;2023-02-11T09:45:09;2.70;99.90
13686;DHT22;6915;48.296;8.874;2023-02-11T09:47:42;2.80;99.90
13686;DHT22;6915;48.296;8.874;2023-02-11T09:50:15;2.90;99.90
13686;DHT22;6915;48.296;8.874;2023-02-11T09:52:50;2.80;99.90
13686;DHT22;6915;48.296;8.874;2023-02-11T09:55:24;2.90;99.90
13686;DHT22;6915;48.296;8.874;2023-02-11T09:57:53;3.20;99.90
13686;DHT22;6915;48.296;8.874;2023-02-11T10:00:30;3.20;99.90
13686;DHT22;6915;48.296;8.874;2023-02-11T10:06:34;3.40;99.90
13686;DHT22;6915;48.296;8.874;2023-02-11T10:12:02;3.60;99.90
13686;DHT22;6915;48.296;8.874;2023-02-11T10:15:00;3.70;99.90
13686;DHT22;6915;48.296;8.874;2023-02-11T10:17:37;3.80;99.90
13686;DHT22;6915;48.296;8.874;2023-02-11T10:20:18;3.90;99.90
13686;DHT22;6915;48.296;8.874;2023-02-11T10:22:49;4.00;99.90
13686;DHT22;6915;48.296;8.874;2023-02-11T10:25:21;4.40;99.90
13686;DHT22;6915;48.296;8.874;2023-02-11T10:27:52;4.50;99.90
13686;DHT22;6915;48.296;8.874;2023-02-11T10:30:28;4.60;99.90
13686;DHT22;6915;48.296;8.874;2023-02-11T10:33:02;4.70;99.90
13686;DHT22;6915;48.296;8.874;2023-02-11T10:35:39;4.90;99.90
13686;DHT22;6915;48.296;8.874;2023-02-11T10:38:09;5.10;99.90
13686;DHT22;6915;48.296;8.874;2023-02-11T10:40:39;5.30;99.90
13686;DHT22;6915;48.296;8.874;2023-02-11T10:43:12;5.20;99.90
13686;DHT22;6915;48.296;8.874;2023-02-11T11:03:53;5.90;99.90
13686;DHT22;6915;48.296;8.874;2023-02-11T11:06:31;5.90;99.90
13686;DHT22;6915;48.296;8.874;2023-02-11T11:09:01;6.00;99.90
13686;DHT22;6915;48.296;8.874;2023-02-11T11:11:30;6.00;99.90
13686;DHT22;6915;48.296;8.874;2023-02-11T11:14:02;6.20;99.90
13686;DHT22;6915;48.296;8.874;2023-02-11T11:16:35;6.30;99.90
13686;DHT22;6915;48.296;8.874;2023-02-11T11:19:22;6.40;99.90
13686;DHT22;6915;48.296;8.874;2023-02-11T11:21:52;6.60;99.90
13686;DHT22;6915;48.296;8.874;2023-02-11T11:24:24;6.70;99.90
13686;DHT22;6915;48.296;8.874;2023-02-11T11:26:58;6.80;99.90
13686;DHT22;6915;48.296;8.874;2023-02-11T11:29:29;6.90;99.90
13686;DHT22;6915;48.296;8.874;2023-02-11T11:32:02;6.80;99.90
13686;DHT22;6915;48.296;8.874;2023-02-11T11:34:35;6.80;99.90
13686;DHT22;6915;48.296;8.874;2023-02-11T14:28:02;9.70;99.90
13686;DHT22;6915;48.296;8.874;2023-02-11T14:30:45;9.80;99.90
13686;DHT22;6915;48.296;8.874;2023-02-11T14:33:51;9.90;99.90
13686;DHT22;6915;48.296;8.874;2023-02-11T14:36:37;10.00;99.90
13686;DHT22;6915;48.296;8.874;2023-02-11T14:39:16;10.10;99.90
13686;DHT22;6915;48.296;8.874;2023-02-11T14:42:04;10.10;99.90
13686;DHT22;6915;48.296;8.874;2023-02-11T15:23:25;8.70;99.90
13686;DHT22;6915;48.296;8.874;2023-02-11T15:25:56;8.60;99.90
13686;DHT22;6915;48.296;8.874;2023-02-11T15:28:31;8.50;99.90
13686;DHT22;6915;48.296;8.874;2023-02-11T15:51:46;7.80;99.90
13686;DHT22;6915;48.296;8.874;2023-02-11T15:54:17;7.70;99.90
13686;DHT22;6915;48.296;8.874;2023-02-11T15:56:49;7.70;99.90
13686;DHT22;6915;48.296;8.874;2023-02-11T15:59:21;7.60;99.90
13686;DHT22;6915;48.296;8.874;2023-02-11T16:01:54;7.50;99.90
13686;DHT22;6915;48.296;8.874;2023-02-11T16:04:25;7.30;99.90
13686;DHT22;6915;48.296;8.874;2023-02-11T16:06:56;7.20;99.90
13686;DHT22;6915;48.296;8.874;2023-02-11T16:09:30;7.00;99.90
13686;DHT22;6915;48.296;8.874;2023-02-11T16:12:03;6.90;99.90
13686;DHT22;6915;48.296;8.874;2023-02-11T16:14:35;6.80;99.90
13686;DHT22;6915;48.296;8.874;2023-02-11T16:17:09;6.80;99.90
13686;DHT22;6915;48.296;8.874;2023-02-11T16:19:46;6.70;99.90
13686;DHT22;6915;48.296;8.874;2023-02-11T16:22:19;6.60;99.90
13686;DHT22;6915;48.296;8.874;2023-02-11T16:24:54;6.50;99.90
13686;DHT22;6915;48.296;8.874;2023-02-11T16:27:28;6.40;99.90
13686;DHT22;6915;48.296;8.874;2023-02-11T16:30:02;6.30;99.90
13686;DHT22;6915;48.296;8.874;2023-02-11T16:32:33;6.10;99.90
13686;DHT22;6915;48.296;8.874;2023-02-11T16:35:09;5.90;99.90
13686;DHT22;6915;48.296;8.874;2023-02-11T16:37:40;5.70;99.90
13686;DHT22;6915;48.296;8.874;2023-02-11T16:40:11;5.50;99.90
13686;DHT22;6915;48.296;8.874;2023-02-11T16:42:40;5.30;99.90
13686;DHT22;6915;48.296;8.874;2023-02-11T16:45:10;5.10;99.90
13686;DHT22;6915;48.296;8.874;2023-02-11T16:47:41;4.90;99.90
13686;DHT22;6915;48.296;8.874;2023-02-11T16:50:21;4.80;99.90
13686;DHT22;6915;48.296;8.874;2023-02-11T16:52:52;4.50;99.90
13686;DHT22;6915;48.296;8.874;2023-02-11T16:55:23;4.20;99.90
13686;DHT22;6915;48.296;8.874;2023-02-11T16:57:53;4.10;99.90
13686;DHT22;6915;48.296;8.874;2023-02-11T17:00:26;3.90;99.90
13686;DHT22;6915;48.296;8.874;2023-02-11T17:02:57;3.70;99.90
13686;DHT22;6915;48.296;8.874;2023-02-11T17:05:27;3.50;99.90
13686;DHT22;6915;48.296;8.874;2023-02-11T17:07:57;3.30;99.90
13686;DHT22;6915;48.296;8.874;2023-02-11T17:10:29;3.10;99.90
13686;DHT22;6915;48.296;8.874;2023-02-11T17:13:00;3.00;99.90
13686;DHT22;6915;48.296;8.874;2023-02-11T17:15:31;3.00;99.90
13686;DHT22;6915;48.296;8.874;2023-02-11T17:18:01;2.70;99.90
13686;DHT22;6915;48.296;8.874;2023-02-11T17:20:31;2.60;99.90
13686;DHT22;6915;48.296;8.874;2023-02-11T17:23:02;2.40;99.90
13686;DHT22;6915;48.296;8.874;2023-02-11T17:25:32;2.30;99.90
13686;DHT22;6915;48.296;8.874;2023-02-11T17:28:07;2.30;99.90
13686;DHT22;6915;48.296;8.874;2023-02-11T17:30:40;2.00;99.90
13686;DHT22;6915;48.296;8.874;2023-02-11T17:33:11;2.00;99.90
13686;DHT22;6915;48.296;8.874;2023-02-11T17:35:42;1.90;99.90
13686;DHT22;6915;48.296;8.874;2023-02-11T17:38:12;1.80;99.90
13686;DHT22;6915;48.296;8.874;2023-02-11T17:40:43;1.70;99.90
13686;DHT22;6915;48.296;8.874;2023-02-11T17:43:13;1.60;99.90
13686;DHT22;6915;48.296;8.874;2023-02-11T17:45:44;1.70;99.90
13686;DHT22;6915;48.296;8.874;2023-02-11T17:48:13;1.50;99.90
13686;DHT22;6915;48.296;8.874;2023-02-11T17:50:44;1.50;99.90
13686;DHT22;6915;48.296;8.874;2023-02-11T17:53:22;1.40;99.90
13686;DHT22;6915;48.296;8.874;2023-02-11T17:55:50;1.20;99.90
13686;DHT22;6915;48.296;8.874;2023-02-11T17:58:21;1.10;99.90
13686;DHT22;6915;48.296;8.874;2023-02-11T18:00:51;1.00;99.90
13686;DHT22;6915;48.296;8.874;2023-02-11T18:03:22;0.90;99.90
13686;DHT22;6915;48.296;8.874;2023-02-11T18:05:52;0.80;99.90
13686;DHT22;6915;48.296;8.874;2023-02-11T18:08:22;0.80;99.90
13686;DHT22;6915;48.296;8.874;2023-02-11T18:10:51;0.70;99.90
13686;DHT22;6915;48.296;8.874;2023-02-11T18:13:19;0.70;99.90
13686;DHT22;6915;48.296;8.874;2023-02-11T18:15:49;0.60;99.90
13686;DHT22;6915;48.296;8.874;2023-02-11T18:18:18;0.70;99.90
13686;DHT22;6915;48.296;8.874;2023-02-11T18:20:56;0.60;99.90
13686;DHT22;6915;48.296;8.874;2023-02-11T18:23:26;0.50;99.90
13686;DHT22;6915;48.296;8.874;2023-02-11T18:25:55;0.50;99.90
13686;DHT22;6915;48.296;8.874;2023-02-11T18:28:24;0.40;99.90
13686;DHT22;6915;48.296;8.874;2023-02-11T18:30:59;0.30;99.90
13686;DHT22;6915;48.296;8.874;2023-02-11T18:33:29;0.20;99.90
13686;DHT22;6915;48.296;8.874;2023-02-11T18:35:58;0.10;99.90
13686;DHT22;6915;48.296;8.874;2023-02-11T18:38:28;0.10;99.90
13686;DHT22;6915;48.296;8.874;2023-02-11T18:40:58;0.00;99.90
13686;DHT22;6915;48.296;8.874;2023-02-11T18:43:27;-0.10;99.90
13686;DHT22;6915;48.296;8.874;2023-02-11T18:46:00;-0.20;99.90
13686;DHT22;6915;48.296;8.874;2023-02-11T18:48:29;-0.20;99.90
13686;DHT22;6915;48.296;8.874;2023-02-11T18:50:57;-0.20;99.90
13686;DHT22;6915;48.296;8.874;2023-02-11T18:53:25;-0.20;99.90
13686;DHT22;6915;48.296;8.874;2023-02-11T18:55:54;-0.20;99.90
13686;DHT22;6915;48.296;8.874;2023-02-11T18:58:47;-0.20;99.90
13686;DHT22;6915;48.296;8.874;2023-02-11T19:01:26;-0.20;99.90
13686;DHT22;6915;48.296;8.874;2023-02-11T19:04:11;-0.40;99.90
13686;DHT22;6915;48.296;8.874;2023-02-11T19:06:48;-0.30;99.90
13686;DHT22;6915;48.296;8.874;2023-02-11T19:09:25;-0.30;99.90
13686;DHT22;6915;48.296;8.874;2023-02-11T19:11:56;-0.30;99.90
13686;DHT22;6915;48.296;8.874;2023-02-11T19:14:35;-0.40;99.90
13686;DHT22;6915;48.296;8.874;2023-02-11T19:17:09;-0.40;99.90
13686;DHT22;6915;48.296;8.874;2023-02-11T19:19:46;-0.50;99.90
13686;DHT22;6915;48.296;8.874;2023-02-11T19:22:18;-0.50;99.90
13686;DHT22;6915;48.296;8.874;2023-02-11T19:24:51;-0.40;99.90
13686;DHT22;6915;48.296;8.874;2023-02-11T19:27:22;-0.70;99.90
13686;DHT22;6915;48.296;8.874;2023-02-11T19:29:54;-0.60;99.90
13686;DHT22;6915;48.296;8.874;2023-02-11T19:32:24;-0.80;99.90
13686;DHT22;6915;48.296;8.874;2023-02-11T19:34:58;-0.80;99.90
13686;DHT22;6915;48.296;8.874;2023-02-11T19:37:31;-1.00;99.90
13686;DHT22;6915;48.296;8.874;2023-02-11T19:40:02;-0.90;99.90
13686;DHT22;6915;48.296;8.874;2023-02-11T19:42:36;-0.90;99.90
13686;DHT22;6915;48.296;8.874;2023-02-11T19:45:07;-0.90;99.90
13686;DHT22;6915;48.296;8.874;2023-02-11T19:47:36;-1.00;99.90
13686;DHT22;6915;48.296;8.874;2023-02-11T19:50:07;-1.00;99.90
13686;DHT22;6915;48.296;8.874;2023-02-11T19:52:38;-1.20;99.90
13686;DHT22;6915;48.296;8.874;2023-02-11T19:55:10;-1.20;99.90
13686;DHT22;6915;48.296;8.874;2023-02-11T19:57:40;-1.30;99.90
13686;DHT22;6915;48.296;8.874;2023-02-11T20:00:08;-1.30;99.90
13686;DHT22;6915;48.296;8.874;2023-02-11T20:02:38;-1.20;99.90
13686;DHT22;6915;48.296;8.874;2023-02-11T20:05:08;-1.20;99.90
13686;DHT22;6915;48.296;8.874;2023-02-11T20:07:37;-1.30;99.90
13686;DHT22;6915;48.296;8.874;2023-02-11T20:10:09;-1.20;99.90
13686;DHT22;6915;48.296;8.874;2023-02-11T20:12:38;-1.30;99.90
13686;DHT22;6915;48.296;8.874;2023-02-11T20:15:09;-1.40;99.90
13686;DHT22;6915;48.296;8.874;2023-02-11T20:17:38;-1.30;99.90
13686;DHT22;6915;48.296;8.874;2023-02-11T20:20:09;-1.20;99.90
13686;DHT22;6915;48.296;8.874;2023-02-11T20:22:39;-1.30;99.90
13686;DHT22;6915;48.296;8.874;2023-02-11T20:25:09;-1.30;99.90
13686;DHT22;6915;48.296;8.874;2023-02-11T20:27:39;-1.20;99.90
13686;DHT22;6915;48.296;8.874;2023-02-11T20:30:09;-1.20;99.90
13686;DHT22;6915;48.296;8.874;2023-02-11T20:32:39;-1.30;99.90
13686;DHT22;6915;48.296;8.874;2023-02-11T20:35:09;-1.20;99.90
13686;DHT22;6915;48.296;8.874;2023-02-11T20:37:38;-1.50;99.90
13686;DHT22;6915;48.296;8.874;2023-02-11T20:40:08;-1.50;99.90